Terminal Aerodrome Forecast
Issued by NWS

Home | Current Version | Previous Version | Text Only | Print | Product List | Glossary On
Versions: 1 2 3 4 5 6 7 8 9 10 11 12 13 14 15 16
000
FTUS44 KOUN 251134
TAFCSM
TAF
KCSM 251134Z 2512/2612 20014G21KT 6SM BR BKN006 OVC010
     FM251500 20015G22KT P6SM BKN015
     FM251600 19015G22KT P6SM SCT035
     FM260000 17013KT P6SM FEW250=

USA.gov is the U.S. government's official web portal to all federal, state and local government web resources and services.